Sawtelle Peak

Sawtelle summit stationLocated on Sawtelle Peak in the Centennials. Use the Sawtelle SNOdar or the nearest SNOTEL station for snow depth data: White Elephant. The data on this page is also available to view at dataGarrison.com.

 

Elevation
9885ft
Jump to table bottom
Date Time Temperature
deg F
RH, % Wind Speed Wind Gust Wind Direction Pressure Light
02/08/23 13:00 7.0 92 0 0 NW - 293 701.400 302,818
02/08/23 12:00 7.8 91 0 1 NW - 296 701.080 408,584
02/08/23 11:00 7.6 91 0 0 W - 257 701.220 261,121
02/08/23 10:00 7.8 92 0 1 W - 277 701.140 302,818
02/08/23 09:00 6.3 92 0 1 W - 256 699.960 65,352
02/08/23 08:00 7.9 92 0 1 SW - 234 701.100 17,998
02/08/23 07:00 8.0 92 0 1 SW - 229 699.780 155
02/08/23 06:00 8.5 92 0 2 W - 267 698.380 0
02/08/23 05:00 9.0 93 0 3 W - 268 700.240 0
02/08/23 04:00 9.1 93 1 3 W - 271 700.460 1
02/08/23 03:00 9.4 93 1 4 W - 265 701.240 1
02/08/23 02:00 9.7 93 3 29 W - 274 701.560 1
02/08/23 01:00 9.8 93 25 39 W - 272 702.580 1
02/08/23 00:00 10.5 93 25 37 W - 282 703.600 1
02/07/23 23:00 10.8 93 37 50 W - 271 703.520 0
02/07/23 22:00 11.3 93 40 53 W - 268 702.500 1
02/07/23 21:00 10.8 93 32 44 W - 265 703.160 0
02/07/23 20:00 12.1 93 31 42 W - 272 705.020 0
02/07/23 19:00 16.4 82 28 36 W - 272 705.160 0
02/07/23 18:00 18.9 77 31 39 W - 272 705.840 18
02/07/23 17:00 17.0 83 27 36 W - 274 706.100 47,554
02/07/23 16:00 16.5 88 20 31 W - 279 706.520 325,191
02/07/23 15:00 15.8 92 17 25 W - 288 706.660 455,366
02/07/23 14:00 14.4 92 17 26 W - 284 706.660 563,166
02/07/23 13:00 13.8 91 16 22 W - 282 707.220 563,166
02/07/23 12:00 16.5 88 14 21 NW - 299 707.560 628,253
02/07/23 11:00 16.1 89 15 23 NW - 302 707.740 640,457
02/07/23 10:00 16.3 90 13 22 NW - 309 707.440 620,117
02/07/23 09:00 17.6 86 13 20 NW - 302 707.300 473,671
02/07/23 08:00 16.3 94 10 22 NW - 305 707.180 270,274
02/07/23 07:00 13.8 94 9 16 NW - 316 707.040 171
02/07/23 06:00 13.9 95 11 24 NW - 310 706.360 1
02/07/23 05:00 14.6 94 12 22 NW - 306 706.160 1
02/07/23 04:00 13.3 94 10 20 NW - 305 705.960 1
02/07/23 03:00 13.1 94 9 15 NW - 305 706.040 1
02/07/23 02:00 13.0 94 11 16 NW - 299 705.860 1
02/07/23 01:00 12.8 94 12 18 NW - 302 705.700 1
02/07/23 00:00 12.7 94 10 17 NW - 312 705.600 1
02/06/23 23:00 13.6 94 7 17 NW - 320 705.740 1
02/06/23 22:00 13.4 94 9 15 NW - 310 705.260 1
02/06/23 21:00 13.5 94 7 14 NW - 316 705.240 0
02/06/23 20:00 13.6 94 9 23 NW - 320 705.140 0
02/06/23 19:00 13.6 94 10 23 NW - 323 704.580 0
02/06/23 18:00 13.8 95 10 24 NW - 321 704.060 11
02/06/23 17:00 14.6 95 9 20 NW - 320 703.620 22,892
02/06/23 16:00 16.2 95 7 18 NW - 321 703.640 112,641
02/06/23 15:00 16.7 95 7 18 NW - 321 703.360 170,610
02/06/23 14:00 17.3 95 7 17 NW - 320 702.600 327,225
02/06/23 13:00 18.7 95 4 9 NW - 331 702.580 294,682
02/06/23 12:00 18.4 94 6 12 N - 338 702.520 542,826